sensor_id;sensor_type;location;lat;lon;timestamp;temperature;humidity
10883;DHT22;5494;51.796;10.952;2023-03-17T00:02:05;6.70;99.90
10883;DHT22;5494;51.796;10.952;2023-03-17T00:04:34;6.80;99.90
10883;DHT22;5494;51.796;10.952;2023-03-17T00:07:04;6.80;99.90
10883;DHT22;5494;51.796;10.952;2023-03-17T00:09:33;6.80;99.90
10883;DHT22;5494;51.796;10.952;2023-03-17T00:12:08;7.00;99.90
10883;DHT22;5494;51.796;10.952;2023-03-17T00:14:36;6.80;99.90
10883;DHT22;5494;51.796;10.952;2023-03-17T00:17:05;6.90;99.90
10883;DHT22;5494;51.796;10.952;2023-03-17T00:19:34;6.90;99.90
10883;DHT22;5494;51.796;10.952;2023-03-17T00:22:02;6.80;99.90
10883;DHT22;5494;51.796;10.952;2023-03-17T00:24:36;6.80;99.90
10883;DHT22;5494;51.796;10.952;2023-03-17T00:27:10;6.80;99.90
10883;DHT22;5494;51.796;10.952;2023-03-17T00:29:39;6.80;99.90
10883;DHT22;5494;51.796;10.952;2023-03-17T00:32:14;6.80;99.90
10883;DHT22;5494;51.796;10.952;2023-03-17T00:34:44;6.80;99.90
10883;DHT22;5494;51.796;10.952;2023-03-17T00:37:14;6.70;99.90
10883;DHT22;5494;51.796;10.952;2023-03-17T00:39:43;6.70;99.90
10883;DHT22;5494;51.796;10.952;2023-03-17T00:42:12;6.60;99.90
10883;DHT22;5494;51.796;10.952;2023-03-17T00:44:40;6.60;99.90
10883;DHT22;5494;51.796;10.952;2023-03-17T00:47:10;6.50;99.90
10883;DHT22;5494;51.796;10.952;2023-03-17T00:49:38;6.50;99.90
10883;DHT22;5494;51.796;10.952;2023-03-17T00:52:08;6.50;99.90
10883;DHT22;5494;51.796;10.952;2023-03-17T00:54:36;6.50;99.90
10883;DHT22;5494;51.796;10.952;2023-03-17T00:57:08;6.50;99.90
10883;DHT22;5494;51.796;10.952;2023-03-17T00:59:41;6.50;99.90
10883;DHT22;5494;51.796;10.952;2023-03-17T01:02:10;6.50;99.90
10883;DHT22;5494;51.796;10.952;2023-03-17T01:04:39;6.40;99.90
10883;DHT22;5494;51.796;10.952;2023-03-17T01:07:15;6.40;99.90
10883;DHT22;5494;51.796;10.952;2023-03-17T01:09:45;6.40;99.90
10883;DHT22;5494;51.796;10.952;2023-03-17T01:12:15;6.40;99.90
10883;DHT22;5494;51.796;10.952;2023-03-17T01:14:45;6.50;99.90
10883;DHT22;5494;51.796;10.952;2023-03-17T01:17:15;6.40;99.90
10883;DHT22;5494;51.796;10.952;2023-03-17T01:19:45;6.40;99.90
10883;DHT22;5494;51.796;10.952;2023-03-17T01:22:14;6.40;99.90
10883;DHT22;5494;51.796;10.952;2023-03-17T01:24:42;6.40;99.90
10883;DHT22;5494;51.796;10.952;2023-03-17T01:27:10;6.40;99.90
10883;DHT22;5494;51.796;10.952;2023-03-17T01:29:39;6.40;99.90
10883;DHT22;5494;51.796;10.952;2023-03-17T01:32:09;6.40;99.90
10883;DHT22;5494;51.796;10.952;2023-03-17T01:34:38;6.50;99.90
10883;DHT22;5494;51.796;10.952;2023-03-17T01:37:09;6.50;99.90
10883;DHT22;5494;51.796;10.952;2023-03-17T01:39:38;6.50;99.90
10883;DHT22;5494;51.796;10.952;2023-03-17T01:42:06;6.50;99.90
10883;DHT22;5494;51.796;10.952;2023-03-17T01:44:34;5.80;99.90
10883;DHT22;5494;51.796;10.952;2023-03-17T01:47:03;6.50;99.90
10883;DHT22;5494;51.796;10.952;2023-03-17T01:49:36;6.50;99.90
10883;DHT22;5494;51.796;10.952;2023-03-17T01:52:07;6.50;99.90
10883;DHT22;5494;51.796;10.952;2023-03-17T01:54:42;6.50;99.90
10883;DHT22;5494;51.796;10.952;2023-03-17T01:57:17;6.50;99.90
10883;DHT22;5494;51.796;10.952;2023-03-17T01:59:50;6.50;99.90
10883;DHT22;5494;51.796;10.952;2023-03-17T02:02:23;6.50;99.90
10883;DHT22;5494;51.796;10.952;2023-03-17T02:04:56;6.50;99.90
10883;DHT22;5494;51.796;10.952;2023-03-17T02:07:26;6.50;99.90
10883;DHT22;5494;51.796;10.952;2023-03-17T02:09:55;6.50;99.90
10883;DHT22;5494;51.796;10.952;2023-03-17T02:12:26;6.50;99.90
10883;DHT22;5494;51.796;10.952;2023-03-17T02:14:56;6.50;99.90
10883;DHT22;5494;51.796;10.952;2023-03-17T02:17:26;6.50;99.90
10883;DHT22;5494;51.796;10.952;2023-03-17T02:20:12;6.60;99.90
10883;DHT22;5494;51.796;10.952;2023-03-17T02:23:01;6.50;99.90
10883;DHT22;5494;51.796;10.952;2023-03-17T02:25:32;6.50;99.90
10883;DHT22;5494;51.796;10.952;2023-03-17T02:28:07;6.60;99.90
10883;DHT22;5494;51.796;10.952;2023-03-17T02:30:40;6.50;99.90
10883;DHT22;5494;51.796;10.952;2023-03-17T02:33:09;6.50;99.90
10883;DHT22;5494;51.796;10.952;2023-03-17T02:35:38;6.50;99.90
10883;DHT22;5494;51.796;10.952;2023-03-17T02:38:09;6.50;99.90
10883;DHT22;5494;51.796;10.952;2023-03-17T02:40:37;6.40;99.90
10883;DHT22;5494;51.796;10.952;2023-03-17T02:43:05;6.50;99.90
10883;DHT22;5494;51.796;10.952;2023-03-17T02:45:33;6.50;99.90
10883;DHT22;5494;51.796;10.952;2023-03-17T02:48:01;6.50;99.90
10883;DHT22;5494;51.796;10.952;2023-03-17T02:50:29;6.50;99.90
10883;DHT22;5494;51.796;10.952;2023-03-17T02:52:58;6.50;99.90
10883;DHT22;5494;51.796;10.952;2023-03-17T02:55:28;6.50;99.90
10883;DHT22;5494;51.796;10.952;2023-03-17T02:57:57;6.50;99.90
10883;DHT22;5494;51.796;10.952;2023-03-17T03:00:27;6.50;99.90
10883;DHT22;5494;51.796;10.952;2023-03-17T03:02:56;6.60;99.90
10883;DHT22;5494;51.796;10.952;2023-03-17T03:05:24;6.60;99.90
10883;DHT22;5494;51.796;10.952;2023-03-17T03:07:54;6.60;99.90
10883;DHT22;5494;51.796;10.952;2023-03-17T03:10:22;6.60;99.90
10883;DHT22;5494;51.796;10.952;2023-03-17T03:12:51;6.60;99.90
10883;DHT22;5494;51.796;10.952;2023-03-17T03:15:19;6.60;99.90
10883;DHT22;5494;51.796;10.952;2023-03-17T03:17:47;6.60;99.90
10883;DHT22;5494;51.796;10.952;2023-03-17T03:20:15;6.60;99.90
10883;DHT22;5494;51.796;10.952;2023-03-17T03:22:44;6.60;99.90
10883;DHT22;5494;51.796;10.952;2023-03-17T03:25:12;6.70;99.90
10883;DHT22;5494;51.796;10.952;2023-03-17T03:27:40;6.70;99.90
10883;DHT22;5494;51.796;10.952;2023-03-17T03:30:10;6.70;99.90
10883;DHT22;5494;51.796;10.952;2023-03-17T03:32:38;6.80;99.90
10883;DHT22;5494;51.796;10.952;2023-03-17T03:35:07;6.80;99.90
10883;DHT22;5494;51.796;10.952;2023-03-17T03:37:36;6.90;99.90
10883;DHT22;5494;51.796;10.952;2023-03-17T03:40:04;7.00;99.90
10883;DHT22;5494;51.796;10.952;2023-03-17T03:42:34;7.00;99.90
10883;DHT22;5494;51.796;10.952;2023-03-17T03:45:04;7.00;99.90
10883;DHT22;5494;51.796;10.952;2023-03-17T03:47:34;7.00;99.90
10883;DHT22;5494;51.796;10.952;2023-03-17T03:50:02;7.10;99.90
10883;DHT22;5494;51.796;10.952;2023-03-17T03:52:30;7.20;99.90
10883;DHT22;5494;51.796;10.952;2023-03-17T03:54:58;7.20;99.90
10883;DHT22;5494;51.796;10.952;2023-03-17T03:57:26;7.30;99.90
10883;DHT22;5494;51.796;10.952;2023-03-17T03:59:54;7.40;99.90
10883;DHT22;5494;51.796;10.952;2023-03-17T04:02:22;7.40;99.90
10883;DHT22;5494;51.796;10.952;2023-03-17T04:04:52;7.40;99.90
10883;DHT22;5494;51.796;10.952;2023-03-17T04:07:23;7.50;99.90
10883;DHT22;5494;51.796;10.952;2023-03-17T04:09:51;7.50;99.90
10883;DHT22;5494;51.796;10.952;2023-03-17T04:12:19;7.50;99.90
10883;DHT22;5494;51.796;10.952;2023-03-17T04:14:47;7.60;99.90
10883;DHT22;5494;51.796;10.952;2023-03-17T04:17:15;7.60;99.90
10883;DHT22;5494;51.796;10.952;2023-03-17T04:19:43;7.60;99.90
10883;DHT22;5494;51.796;10.952;2023-03-17T04:22:13;7.60;99.90
10883;DHT22;5494;51.796;10.952;2023-03-17T04:24:42;7.60;99.90
10883;DHT22;5494;51.796;10.952;2023-03-17T04:27:10;7.60;99.90
10883;DHT22;5494;51.796;10.952;2023-03-17T04:29:41;7.60;99.90
10883;DHT22;5494;51.796;10.952;2023-03-17T04:32:10;7.60;99.90
10883;DHT22;5494;51.796;10.952;2023-03-17T04:34:41;7.60;99.90
10883;DHT22;5494;51.796;10.952;2023-03-17T04:37:10;7.60;99.90
10883;DHT22;5494;51.796;10.952;2023-03-17T04:39:40;7.60;99.90
10883;DHT22;5494;51.796;10.952;2023-03-17T04:42:08;7.60;99.90
10883;DHT22;5494;51.796;10.952;2023-03-17T04:44:37;7.60;99.90
10883;DHT22;5494;51.796;10.952;2023-03-17T04:47:06;7.60;99.90
10883;DHT22;5494;51.796;10.952;2023-03-17T04:49:34;7.60;99.90
10883;DHT22;5494;51.796;10.952;2023-03-17T04:52:03;7.60;99.90
10883;DHT22;5494;51.796;10.952;2023-03-17T04:54:31;7.60;99.90
10883;DHT22;5494;51.796;10.952;2023-03-17T04:57:00;7.60;99.90
10883;DHT22;5494;51.796;10.952;2023-03-17T04:59:28;7.60;99.90
10883;DHT22;5494;51.796;10.952;2023-03-17T05:01:56;7.60;99.90
10883;DHT22;5494;51.796;10.952;2023-03-17T05:04:24;7.60;99.90
10883;DHT22;5494;51.796;10.952;2023-03-17T05:06:58;7.60;99.90
10883;DHT22;5494;51.796;10.952;2023-03-17T05:09:26;7.60;99.90
10883;DHT22;5494;51.796;10.952;2023-03-17T05:11:55;7.60;99.90
10883;DHT22;5494;51.796;10.952;2023-03-17T05:14:24;7.60;99.90
10883;DHT22;5494;51.796;10.952;2023-03-17T05:16:52;7.60;99.90
10883;DHT22;5494;51.796;10.952;2023-03-17T05:19:20;7.60;99.90
10883;DHT22;5494;51.796;10.952;2023-03-17T05:21:50;7.70;99.90
10883;DHT22;5494;51.796;10.952;2023-03-17T05:24:18;7.70;99.90
10883;DHT22;5494;51.796;10.952;2023-03-17T05:26:46;7.70;99.90
10883;DHT22;5494;51.796;10.952;2023-03-17T05:29:15;7.60;99.90
10883;DHT22;5494;51.796;10.952;2023-03-17T05:31:44;7.70;99.90
10883;DHT22;5494;51.796;10.952;2023-03-17T05:34:13;7.60;99.90
10883;DHT22;5494;51.796;10.952;2023-03-17T05:36:41;7.40;99.90
10883;DHT22;5494;51.796;10.952;2023-03-17T05:39:10;7.30;99.90
10883;DHT22;5494;51.796;10.952;2023-03-17T05:41:40;7.20;99.90
10883;DHT22;5494;51.796;10.952;2023-03-17T05:44:08;7.20;99.90
10883;DHT22;5494;51.796;10.952;2023-03-17T05:46:36;7.20;99.90
10883;DHT22;5494;51.796;10.952;2023-03-17T05:49:05;7.30;99.90
10883;DHT22;5494;51.796;10.952;2023-03-17T05:51:33;7.30;99.90
10883;DHT22;5494;51.796;10.952;2023-03-17T05:54:03;7.50;99.90
10883;DHT22;5494;51.796;10.952;2023-03-17T05:56:31;7.60;99.90
10883;DHT22;5494;51.796;10.952;2023-03-17T05:58:59;7.60;99.90
10883;DHT22;5494;51.796;10.952;2023-03-17T06:01:28;7.60;99.90
10883;DHT22;5494;51.796;10.952;2023-03-17T06:03:56;7.70;99.90
10883;DHT22;5494;51.796;10.952;2023-03-17T06:06:27;7.80;99.90
10883;DHT22;5494;51.796;10.952;2023-03-17T06:08:56;7.90;99.90
10883;DHT22;5494;51.796;10.952;2023-03-17T06:11:24;7.90;99.90
10883;DHT22;5494;51.796;10.952;2023-03-17T06:13:52;8.10;99.90
10883;DHT22;5494;51.796;10.952;2023-03-17T06:16:20;8.20;99.90
10883;DHT22;5494;51.796;10.952;2023-03-17T06:18:49;8.30;99.90
10883;DHT22;5494;51.796;10.952;2023-03-17T06:21:17;8.30;99.90
10883;DHT22;5494;51.796;10.952;2023-03-17T06:23:46;8.40;99.90
10883;DHT22;5494;51.796;10.952;2023-03-17T06:26:14;8.50;99.90
10883;DHT22;5494;51.796;10.952;2023-03-17T06:28:42;8.50;99.90
10883;DHT22;5494;51.796;10.952;2023-03-17T06:31:11;8.70;99.90
10883;DHT22;5494;51.796;10.952;2023-03-17T06:33:39;8.60;99.90
10883;DHT22;5494;51.796;10.952;2023-03-17T06:36:07;8.80;99.90
10883;DHT22;5494;51.796;10.952;2023-03-17T06:38:35;9.00;99.90
10883;DHT22;5494;51.796;10.952;2023-03-17T06:41:04;9.10;99.90
10883;DHT22;5494;51.796;10.952;2023-03-17T06:43:33;9.40;99.90
10883;DHT22;5494;51.796;10.952;2023-03-17T06:46:01;9.70;99.90
10883;DHT22;5494;51.796;10.952;2023-03-17T06:48:29;10.00;99.90
10883;DHT22;5494;51.796;10.952;2023-03-17T06:50:56;10.30;99.90
10883;DHT22;5494;51.796;10.952;2023-03-17T06:53:24;10.60;99.90
10883;DHT22;5494;51.796;10.952;2023-03-17T06:55:53;10.90;99.90
10883;DHT22;5494;51.796;10.952;2023-03-17T06:58:23;11.20;99.90
10883;DHT22;5494;51.796;10.952;2023-03-17T07:00:51;11.50;99.90
10883;DHT22;5494;51.796;10.952;2023-03-17T07:03:20;11.70;99.90
10883;DHT22;5494;51.796;10.952;2023-03-17T07:05:49;11.90;99.70
10883;DHT22;5494;51.796;10.952;2023-03-17T07:08:17;12.00;99.00
10883;DHT22;5494;51.796;10.952;2023-03-17T07:10:45;12.30;98.60
10883;DHT22;5494;51.796;10.952;2023-03-17T07:13:13;12.60;97.90
10883;DHT22;5494;51.796;10.952;2023-03-17T07:15:44;13.00;96.60
10883;DHT22;5494;51.796;10.952;2023-03-17T07:18:13;13.20;96.60
10883;DHT22;5494;51.796;10.952;2023-03-17T07:20:42;13.50;94.80
10883;DHT22;5494;51.796;10.952;2023-03-17T07:23:13;13.70;94.60
10883;DHT22;5494;51.796;10.952;2023-03-17T07:25:42;13.70;94.00
10883;DHT22;5494;51.796;10.952;2023-03-17T07:28:12;13.70;93.70
10883;DHT22;5494;51.796;10.952;2023-03-17T07:30:41;13.70;93.50
10883;DHT22;5494;51.796;10.952;2023-03-17T07:33:14;13.80;93.20
10883;DHT22;5494;51.796;10.952;2023-03-17T07:35:43;14.00;92.50
10883;DHT22;5494;51.796;10.952;2023-03-17T07:38:11;14.10;92.10
10883;DHT22;5494;51.796;10.952;2023-03-17T07:40:39;14.20;92.00
10883;DHT22;5494;51.796;10.952;2023-03-17T07:43:07;14.30;91.60
10883;DHT22;5494;51.796;10.952;2023-03-17T07:45:35;14.30;92.00
10883;DHT22;5494;51.796;10.952;2023-03-17T07:48:05;14.40;91.10
10883;DHT22;5494;51.796;10.952;2023-03-17T07:50:35;14.40;91.20
10883;DHT22;5494;51.796;10.952;2023-03-17T07:53:04;14.30;91.20
10883;DHT22;5494;51.796;10.952;2023-03-17T07:55:32;14.30;91.30
10883;DHT22;5494;51.796;10.952;2023-03-17T07:58:01;14.30;91.40
10883;DHT22;5494;51.796;10.952;2023-03-17T08:00:29;14.40;91.10
10883;DHT22;5494;51.796;10.952;2023-03-17T08:02:57;14.30;90.30
10883;DHT22;5494;51.796;10.952;2023-03-17T08:05:37;14.30;91.30
10883;DHT22;5494;51.796;10.952;2023-03-17T08:08:06;14.50;90.70
10883;DHT22;5494;51.796;10.952;2023-03-17T08:10:36;14.60;90.80
10883;DHT22;5494;51.796;10.952;2023-03-17T08:13:04;14.70;90.10
10883;DHT22;5494;51.796;10.952;2023-03-17T08:15:32;14.80;90.40
10883;DHT22;5494;51.796;10.952;2023-03-17T08:18:00;15.00;89.10
10883;DHT22;5494;51.796;10.952;2023-03-17T08:20:28;15.20;88.60
10883;DHT22;5494;51.796;10.952;2023-03-17T08:22:59;15.30;86.60
10883;DHT22;5494;51.796;10.952;2023-03-17T08:25:27;15.40;87.00
10883;DHT22;5494;51.796;10.952;2023-03-17T08:27:55;15.40;85.90
10883;DHT22;5494;51.796;10.952;2023-03-17T08:30:25;15.50;84.50
10883;DHT22;5494;51.796;10.952;2023-03-17T08:32:58;15.50;86.50
10883;DHT22;5494;51.796;10.952;2023-03-17T08:35:26;15.90;82.90
10883;DHT22;5494;51.796;10.952;2023-03-17T08:37:55;16.10;82.00
10883;DHT22;5494;51.796;10.952;2023-03-17T08:40:25;16.20;81.00
10883;DHT22;5494;51.796;10.952;2023-03-17T08:42:52;16.20;79.80
10883;DHT22;5494;51.796;10.952;2023-03-17T08:45:21;16.10;80.80
10883;DHT22;5494;51.796;10.952;2023-03-17T08:47:49;16.00;80.50
10883;DHT22;5494;51.796;10.952;2023-03-17T08:50:18;15.90;80.50
10883;DHT22;5494;51.796;10.952;2023-03-17T08:52:49;16.10;80.20
10883;DHT22;5494;51.796;10.952;2023-03-17T08:55:20;16.10;79.30
10883;DHT22;5494;51.796;10.952;2023-03-17T08:57:50;16.30;78.70
10883;DHT22;5494;51.796;10.952;2023-03-17T09:00:19;16.40;78.20
10883;DHT22;5494;51.796;10.952;2023-03-17T09:02:47;16.60;77.20
10883;DHT22;5494;51.796;10.952;2023-03-17T09:05:16;16.50;76.80
10883;DHT22;5494;51.796;10.952;2023-03-17T09:07:45;16.40;76.30
10883;DHT22;5494;51.796;10.952;2023-03-17T09:10:14;16.20;76.70
10883;DHT22;5494;51.796;10.952;2023-03-17T09:12:46;16.20;77.30
10883;DHT22;5494;51.796;10.952;2023-03-17T09:15:16;16.50;76.50
10883;DHT22;5494;51.796;10.952;2023-03-17T09:17:44;16.80;75.10
10883;DHT22;5494;51.796;10.952;2023-03-17T09:20:12;16.90;73.20
10883;DHT22;5494;51.796;10.952;2023-03-17T09:22:43;17.00;71.90
10883;DHT22;5494;51.796;10.952;2023-03-17T09:25:11;17.20;71.50
10883;DHT22;5494;51.796;10.952;2023-03-17T09:27:39;17.40;71.10
10883;DHT22;5494;51.796;10.952;2023-03-17T09:30:10;17.60;69.90
10883;DHT22;5494;51.796;10.952;2023-03-17T09:32:41;17.80;68.80
10883;DHT22;5494;51.796;10.952;2023-03-17T09:35:11;18.10;67.10
10883;DHT22;5494;51.796;10.952;2023-03-17T09:37:39;18.20;65.90
10883;DHT22;5494;51.796;10.952;2023-03-17T09:40:13;18.20;65.90
10883;DHT22;5494;51.796;10.952;2023-03-17T09:42:51;18.30;63.90
10883;DHT22;5494;51.796;10.952;2023-03-17T09:45:29;18.20;63.90
10883;DHT22;5494;51.796;10.952;2023-03-17T09:48:18;18.00;63.00
10883;DHT22;5494;51.796;10.952;2023-03-17T09:50:57;17.80;61.50
10883;DHT22;5494;51.796;10.952;2023-03-17T09:53:32;17.60;63.30
10883;DHT22;5494;51.796;10.952;2023-03-17T09:56:10;17.40;62.60
10883;DHT22;5494;51.796;10.952;2023-03-17T09:58:45;17.20;63.60
10883;DHT22;5494;51.796;10.952;2023-03-17T10:01:17;17.30;61.60
10883;DHT22;5494;51.796;10.952;2023-03-17T10:03:46;17.30;61.10
10883;DHT22;5494;51.796;10.952;2023-03-17T10:06:32;17.20;60.80
10883;DHT22;5494;51.796;10.952;2023-03-17T10:09:22;17.20;60.00
10883;DHT22;5494;51.796;10.952;2023-03-17T10:12:01;17.20;59.60
10883;DHT22;5494;51.796;10.952;2023-03-17T10:14:52;17.10;60.30
10883;DHT22;5494;51.796;10.952;2023-03-17T10:17:27;17.00;59.60
10883;DHT22;5494;51.796;10.952;2023-03-17T10:20:06;16.80;59.40
10883;DHT22;5494;51.796;10.952;2023-03-17T10:22:44;16.70;60.30
10883;DHT22;5494;51.796;10.952;2023-03-17T10:25:20;16.70;60.00
10883;DHT22;5494;51.796;10.952;2023-03-17T10:27:56;16.80;60.40
10883;DHT22;5494;51.796;10.952;2023-03-17T10:30:30;17.00;60.80
10883;DHT22;5494;51.796;10.952;2023-03-17T10:33:01;16.90;59.50
10883;DHT22;5494;51.796;10.952;2023-03-17T10:35:35;17.00;59.30
10883;DHT22;5494;51.796;10.952;2023-03-17T10:38:14;17.00;58.50
10883;DHT22;5494;51.796;10.952;2023-03-17T10:40:46;16.90;58.80
10883;DHT22;5494;51.796;10.952;2023-03-17T10:43:28;16.90;59.40
10883;DHT22;5494;51.796;10.952;2023-03-17T10:45:59;17.10;59.90
10883;DHT22;5494;51.796;10.952;2023-03-17T10:48:35;17.20;59.00
10883;DHT22;5494;51.796;10.952;2023-03-17T10:51:08;17.20;58.70
10883;DHT22;5494;51.796;10.952;2023-03-17T10:53:38;17.20;58.40
10883;DHT22;5494;51.796;10.952;2023-03-17T10:56:16;17.30;58.10
10883;DHT22;5494;51.796;10.952;2023-03-17T10:58:50;17.30;58.50
10883;DHT22;5494;51.796;10.952;2023-03-17T11:01:24;17.40;58.50
10883;DHT22;5494;51.796;10.952;2023-03-17T11:03:55;17.40;58.60
10883;DHT22;5494;51.796;10.952;2023-03-17T11:06:36;17.40;57.60
10883;DHT22;5494;51.796;10.952;2023-03-17T11:09:07;17.40;57.10
10883;DHT22;5494;51.796;10.952;2023-03-17T11:11:43;17.40;58.70
10883;DHT22;5494;51.796;10.952;2023-03-17T11:14:13;17.40;55.70
10883;DHT22;5494;51.796;10.952;2023-03-17T11:16:50;17.20;57.70
10883;DHT22;5494;51.796;10.952;2023-03-17T11:19:28;17.20;56.00
10883;DHT22;5494;51.796;10.952;2023-03-17T11:22:14;17.00;57.80
10883;DHT22;5494;51.796;10.952;2023-03-17T11:24:54;17.00;57.10
10883;DHT22;5494;51.796;10.952;2023-03-17T11:27:32;17.10;57.00
10883;DHT22;5494;51.796;10.952;2023-03-17T11:30:15;17.20;57.50
10883;DHT22;5494;51.796;10.952;2023-03-17T11:32:52;17.40;58.10
10883;DHT22;5494;51.796;10.952;2023-03-17T11:35:36;17.40;57.50
10883;DHT22;5494;51.796;10.952;2023-03-17T11:38:21;17.50;56.10
10883;DHT22;5494;51.796;10.952;2023-03-17T11:47:09;17.60;57.30
10883;DHT22;5494;51.796;10.952;2023-03-17T11:49:48;17.50;57.00
10883;DHT22;5494;51.796;10.952;2023-03-17T11:52:33;17.50;55.90
10883;DHT22;5494;51.796;10.952;2023-03-17T11:55:13;17.40;58.00
10883;DHT22;5494;51.796;10.952;2023-03-17T11:57:52;17.50;57.40
10883;DHT22;5494;51.796;10.952;2023-03-17T12:00:27;17.50;57.80
10883;DHT22;5494;51.796;10.952;2023-03-17T12:03:13;17.30;56.70
10883;DHT22;5494;51.796;10.952;2023-03-17T12:05:47;17.20;59.30
10883;DHT22;5494;51.796;10.952;2023-03-17T12:08:23;17.40;59.20
10883;DHT22;5494;51.796;10.952;2023-03-17T12:11:04;17.50;59.20
10883;DHT22;5494;51.796;10.952;2023-03-17T12:13:38;17.50;58.10
10883;DHT22;5494;51.796;10.952;2023-03-17T12:16:16;17.60;58.10
10883;DHT22;5494;51.796;10.952;2023-03-17T12:18:56;17.70;57.90
10883;DHT22;5494;51.796;10.952;2023-03-17T12:21:33;17.60;57.80
10883;DHT22;5494;51.796;10.952;2023-03-17T12:24:10;17.50;57.60
10883;DHT22;5494;51.796;10.952;2023-03-17T12:26:49;17.40;58.20
10883;DHT22;5494;51.796;10.952;2023-03-17T12:29:33;17.30;57.70
10883;DHT22;5494;51.796;10.952;2023-03-17T12:32:15;17.30;58.00
10883;DHT22;5494;51.796;10.952;2023-03-17T12:34:50;17.20;57.50
10883;DHT22;5494;51.796;10.952;2023-03-17T12:37:25;17.20;58.40
10883;DHT22;5494;51.796;10.952;2023-03-17T12:39:59;17.00;58.00
10883;DHT22;5494;51.796;10.952;2023-03-17T12:42:44;16.80;59.50
10883;DHT22;5494;51.796;10.952;2023-03-17T12:45:33;16.80;59.20
10883;DHT22;5494;51.796;10.952;2023-03-17T12:48:32;16.80;61.00
10883;DHT22;5494;51.796;10.952;2023-03-17T12:51:33;17.00;60.90
10883;DHT22;5494;51.796;10.952;2023-03-17T12:54:12;17.20;60.60
10883;DHT22;5494;51.796;10.952;2023-03-17T12:56:48;17.30;59.90
10883;DHT22;5494;51.796;10.952;2023-03-17T12:59:21;17.20;59.40
10883;DHT22;5494;51.796;10.952;2023-03-17T13:01:55;17.00;60.30
10883;DHT22;5494;51.796;10.952;2023-03-17T13:04:26;17.00;60.30
10883;DHT22;5494;51.796;10.952;2023-03-17T13:07:04;17.00;61.70
10883;DHT22;5494;51.796;10.952;2023-03-17T13:09:45;17.00;60.10
10883;DHT22;5494;51.796;10.952;2023-03-17T13:12:34;17.10;60.30
10883;DHT22;5494;51.796;10.952;2023-03-17T13:15:50;17.20;61.70
10883;DHT22;5494;51.796;10.952;2023-03-17T13:18:48;17.00;62.00
10883;DHT22;5494;51.796;10.952;2023-03-17T13:21:19;16.90;62.20
10883;DHT22;5494;51.796;10.952;2023-03-17T13:23:56;17.00;62.90
10883;DHT22;5494;51.796;10.952;2023-03-17T13:26:51;17.00;61.40
10883;DHT22;5494;51.796;10.952;2023-03-17T13:29:40;16.90;62.70
10883;DHT22;5494;51.796;10.952;2023-03-17T13:32:35;16.90;63.00
10883;DHT22;5494;51.796;10.952;2023-03-17T13:35:19;17.00;63.80
10883;DHT22;5494;51.796;10.952;2023-03-17T13:41:26;17.00;64.60
10883;DHT22;5494;51.796;10.952;2023-03-17T13:44:20;17.00;63.40
10883;DHT22;5494;51.796;10.952;2023-03-17T13:47:27;17.10;63.60
10883;DHT22;5494;51.796;10.952;2023-03-17T13:50:06;16.90;64.20
10883;DHT22;5494;51.796;10.952;2023-03-17T13:52:44;17.00;64.00
10883;DHT22;5494;51.796;10.952;2023-03-17T13:55:36;17.10;63.90
10883;DHT22;5494;51.796;10.952;2023-03-17T13:58:23;17.10;64.70
10883;DHT22;5494;51.796;10.952;2023-03-17T14:01:03;17.30;66.00
10883;DHT22;5494;51.796;10.952;2023-03-17T14:03:39;17.40;65.20
10883;DHT22;5494;51.796;10.952;2023-03-17T14:06:11;17.40;63.40
10883;DHT22;5494;51.796;10.952;2023-03-17T14:08:44;17.40;64.50
10883;DHT22;5494;51.796;10.952;2023-03-17T14:11:21;17.30;66.80
10883;DHT22;5494;51.796;10.952;2023-03-17T14:14:09;17.30;65.20
10883;DHT22;5494;51.796;10.952;2023-03-17T14:17:01;17.30;65.20
10883;DHT22;5494;51.796;10.952;2023-03-17T14:19:36;17.20;65.60
10883;DHT22;5494;51.796;10.952;2023-03-17T14:22:22;17.30;66.60
10883;DHT22;5494;51.796;10.952;2023-03-17T14:24:52;17.50;64.10
10883;DHT22;5494;51.796;10.952;2023-03-17T14:27:22;17.50;65.40
10883;DHT22;5494;51.796;10.952;2023-03-17T14:29:51;17.40;65.50
10883;DHT22;5494;51.796;10.952;2023-03-17T14:32:22;17.50;65.30
10883;DHT22;5494;51.796;10.952;2023-03-17T14:34:56;17.50;65.00
10883;DHT22;5494;51.796;10.952;2023-03-17T14:37:27;17.40;65.10
10883;DHT22;5494;51.796;10.952;2023-03-17T14:39:56;17.40;66.20
10883;DHT22;5494;51.796;10.952;2023-03-17T14:42:26;17.30;66.30
10883;DHT22;5494;51.796;10.952;2023-03-17T14:45:01;17.20;67.10
10883;DHT22;5494;51.796;10.952;2023-03-17T14:47:36;17.30;67.90
10883;DHT22;5494;51.796;10.952;2023-03-17T14:50:14;17.20;67.60
10883;DHT22;5494;51.796;10.952;2023-03-17T14:52:48;17.10;68.60
10883;DHT22;5494;51.796;10.952;2023-03-17T14:55:17;17.20;69.30
10883;DHT22;5494;51.796;10.952;2023-03-17T14:57:50;17.10;69.40
10883;DHT22;5494;51.796;10.952;2023-03-17T15:00:29;17.20;70.30
10883;DHT22;5494;51.796;10.952;2023-03-17T15:03:02;17.10;69.60
10883;DHT22;5494;51.796;10.952;2023-03-17T15:05:43;17.10;72.00
10883;DHT22;5494;51.796;10.952;2023-03-17T15:08:38;17.10;69.80
10883;DHT22;5494;51.796;10.952;2023-03-17T15:11:18;16.90;70.60
10883;DHT22;5494;51.796;10.952;2023-03-17T15:13:48;16.80;71.80
10883;DHT22;5494;51.796;10.952;2023-03-17T15:16:22;16.80;73.40
10883;DHT22;5494;51.796;10.952;2023-03-17T15:19:02;16.90;72.40
10883;DHT22;5494;51.796;10.952;2023-03-17T15:21:36;16.80;74.70
10883;DHT22;5494;51.796;10.952;2023-03-17T15:24:30;16.70;72.50
10883;DHT22;5494;51.796;10.952;2023-03-17T15:27:05;16.80;74.50
10883;DHT22;5494;51.796;10.952;2023-03-17T15:29:39;16.90;71.50
10883;DHT22;5494;51.796;10.952;2023-03-17T15:32:12;16.90;71.00
10883;DHT22;5494;51.796;10.952;2023-03-17T15:34:45;16.90;72.30
10883;DHT22;5494;51.796;10.952;2023-03-17T15:37:17;16.70;71.80
10883;DHT22;5494;51.796;10.952;2023-03-17T15:39:49;16.60;72.70
10883;DHT22;5494;51.796;10.952;2023-03-17T15:42:20;16.50;71.90
10883;DHT22;5494;51.796;10.952;2023-03-17T15:44:51;16.40;73.30
10883;DHT22;5494;51.796;10.952;2023-03-17T15:47:21;16.40;72.80
10883;DHT22;5494;51.796;10.952;2023-03-17T15:49:56;16.40;72.40
10883;DHT22;5494;51.796;10.952;2023-03-17T15:52:28;16.40;74.10
10883;DHT22;5494;51.796;10.952;2023-03-17T15:54:58;16.40;72.40
10883;DHT22;5494;51.796;10.952;2023-03-17T15:57:26;16.50;73.10
10883;DHT22;5494;51.796;10.952;2023-03-17T15:59:54;16.30;72.80
10883;DHT22;5494;51.796;10.952;2023-03-17T16:02:26;16.30;73.20
10883;DHT22;5494;51.796;10.952;2023-03-17T16:04:56;16.30;74.20
10883;DHT22;5494;51.796;10.952;2023-03-17T16:07:27;16.20;73.90
10883;DHT22;5494;51.796;10.952;2023-03-17T16:09:58;16.10;75.20
10883;DHT22;5494;51.796;10.952;2023-03-17T16:12:26;15.90;75.90
10883;DHT22;5494;51.796;10.952;2023-03-17T16:14:54;15.90;76.60
10883;DHT22;5494;51.796;10.952;2023-03-17T16:17:24;15.90;76.40
10883;DHT22;5494;51.796;10.952;2023-03-17T16:19:56;15.90;77.80
10883;DHT22;5494;51.796;10.952;2023-03-17T16:22:37;15.90;79.70